Airfield :
LOGIN :

Register | Disclaimer

   EN    FR    IT 

 










Legend :    VFR   Marginal VFR   IFR   Intensive IFR   Very Intensive IFR
Visi :
Ceiling :
>= 8 km
>= 3000ft
5 to 8 km
1000 to 3000 ft
1500m to 5 km
500 to 1000 ft
800 to 1500m
200 to 500 ft
< 800m
< 200 ft
Symbols :   Thunderstorms  Fog  Heavy snow  Heavy precipitations  Wind > 20 kt
SIGMETs :     Misc.  Thunderstorms  Icing  Turbulence  Mountain Waves  Volcanic Ashes






- Airport Elevation : 32 ft
- IATA code : LKZ


EGUL - RAF Lakenheath

CURRENT METAR :
  • 200456Z AUTO 22017G25KT 9999 BKN030 09/05 A2975 RMK AO2 SLP078 T00940052 $

EXPIRED METARs :
  • 200436Z AUTO 21015KT 9999 BKN028 BKN040 09/06 A2976 RMK AO2 CIG 028V041 SLP081 $
  • 200356Z AUTO 22013G20KT 9999 FEW021 FEW029 BKN044 09/06 A2977 RMK AO2 SLP085 T00880057 $
  • 200346Z AUTO 22014KT 9999 FEW020 SCT027 BKN044 09/06 A2978 RMK AO2 SLP088 $
  • 200321Z AUTO 21012KT 9999 BKN028 OVC040 09/06 A2979 RMK AO2 CIG 028V040 BKN V SCT SLP092 $
  • 200301Z AUTO 20011KT 9999 SCT024 BKN040 09/06 A2979 RMK AO2 SLP092 $

TAF AMD TAF EGUL
Valid from the 19 at 21:00 until the 21 at 03:00 UTC


192145Z 1921/2103 24012G20KT 9999 BKN025 QNH2985INS
BECMG 2000/2001 22020G30KT 9999 OVC020 510002 QNH2967INS
TEMPO 2006/2009 BKN015
BECMG 2009/2010 21025G35KT 8000 -RA OVC020 620409 510002 QNH2959INS
BECMG 2012/2013 24025G40KT 6000 -SHRA OVC015 610309 510002 QNH2959INS
BECMG 2014/2015 29025G30KT 6000 -SHRA BKN020 610209 510002 QNH2969INS
BECMG 2016/2017 28015G25KT 9999 NSW SCT015 BKN025 QNH2982INS
BECMG 2017/2018 26015G25KT 9999 SKC QNH2985INS TX11/2012Z TN03/2021Z LAST NO AMDS AFT 1922 NEXT 2005



MET'MAP, your aeronautical weather chart ! - Copyright ORBIFLY December 2007 - Disclaimer

ORBIFLY MET'MAP TEAM :

Programming & Development : Alexandra Zaïnal
Concept & original design : Baudouin d'Aumeries
Assistance for programming : Marc-Olivier Méhu
Technical & hardware support : Manuel Goepfert

Contact : metmap@orbifly.com




SOURCES & CREDITS :

   NOAA